Latest Weather Observations for Murganella Airstrip

IDD60801

Issued at 7:01 pm CST Sunday 30 August 2015 (issued every 30 minutes, with the page automatically refreshed every 10 minutes)

About weather observations | Map of weather stations | Latest weather observations for NT | Other Formats
Station Details ID: 014309 Name: MURGANELLA AIRSTRIP Lat: -11.55 Lon: 132.93 Height: 9.5 m
Data from the previous 72 hours. | See also: Recent months at Murganella Airstrip
Date/Time
CST
Temp
°C
App
Temp
°C
Dew
Point
Rel
Hum
%
Delta-T
°C
Wind Press
QNH
hPa
Press
MSL
hPa
Rain
since 9 am
mm
Dir
 
Spd
km/h
Gust
km/h
Spd
kts
Gust
kts
30/07:00pm 25.3 - - - - - - - - - 1013.1 - -
30/06:30pm 25.8 - - - - - - - - - 1012.8 1012.8 -
30/06:00pm 26.6 - - - - - - - - - 1012.7 1012.7 -
30/05:30pm 27.2 - - - - - - - - - 1012.7 1012.7 -
30/05:00pm 27.8 - - - - - - - - - 1012.6 - -
30/04:30pm 28.6 - - - - - - - - - 1012.6 1012.6 -
30/04:00pm 29.9 - - - - - - - - - 1012.3 - -
30/03:30pm 30.8 - - - - - - - - - 1012.5 1012.5 -
30/03:00pm 30.1 - - - - - - - - - 1012.8 1012.8 0.0
30/02:30pm 30.9 - - - - - - - - - 1013.1 1013.1 -
30/02:00pm 31.4 - - - - - - - - - 1013.4 - -
30/01:30pm 32.2 - - - - - - - - - 1013.7 1013.7 -
30/01:00pm 31.6 - - - - - - - - - 1014.1 - -
30/12:30pm 32.3 - - - - - - - - - 1014.7 1014.7 -
30/12:00pm 31.5 - - - - - - - - - 1015.1 1015.1 -
30/11:30am 31.8 - - - - - - - - - 1015.6 1015.6 -
30/11:00am 31.6 - - - - - - - - - 1016.1 - -
30/10:30am 29.8 - - - - - - - - - 1016.5 1016.5 -
30/10:00am 29.5 - - - - - - - - - 1016.5 - -
30/09:30am 28.1 - - - - - - - - - 1016.5 1016.5 -
30/09:00am 26.8 - - - - - - - - - 1016.5 1016.5 0.0
30/08:30am 24.9 - - - - - - - - - 1016.2 1016.2 -
30/08:00am 23.1 - - - - - - - - - 1015.9 - -
30/07:30am 21.1 - - - - - - - - - 1015.6 1015.6 -
30/07:00am 19.7 - - - - - - - - - 1015.3 - -
30/06:30am 20.1 - - - - - - - - - 1015.0 1015.0 -
30/06:00am 20.3 - - - - - - - - - 1014.8 1014.8 -
30/05:30am 20.6 - - - - - - - - - 1014.6 1014.6 -
30/05:00am 20.3 - - - - - - - - - 1014.4 - -
30/04:30am 19.5 - - - - - - - - - 1014.3 1014.3 -
30/04:00am 19.2 - - - - - - - - - 1014.2 - -
30/03:30am 19.4 - - - - - - - - - 1014.1 1014.1 -
30/03:00am 19.6 - - - - - - - - - 1014.1 1014.1 0.0
30/02:30am 20.0 - - - - - - - - - 1014.4 1014.4 -
30/02:00am 19.8 - - - - - - - - - 1014.6 - -
30/01:30am 19.9 - - - - - - - - - 1014.7 1014.7 -
30/01:00am 20.0 - - - - - - - - - 1014.9 - -
30/12:30am 20.1 - - - - - - - - - 1015.0 1015.0 -
30/12:00am 20.4 - - - - - - - - - 1015.0 1015.0 -
 
Date/Time
CST
Temp
°C
App
Temp
°C
Dew
Point
Rel
Hum
%
Delta-T
°C
Wind Press
QNH
hPa
Press
MSL
hPa
Rain
since 9 am
mm
Dir
 
Spd
km/h
Gust
km/h
Spd
kts
Gust
kts
29/11:30pm 20.6 - - - - - - - - - 1014.9 1014.9 -
29/11:00pm 21.0 - - - - - - - - - 1014.9 - -
29/10:30pm 21.3 - - - - - - - - - 1014.8 1014.8 -
29/10:00pm 21.6 - - - - - - - - - 1014.9 - -
29/09:30pm 22.0 - - - - - - - - - 1014.8 1014.8 -
29/09:00pm 22.6 - - - - - - - - - 1014.6 1014.6 0.0
29/08:30pm 23.3 - - - - - - - - - 1014.4 1014.4 -
29/08:00pm 24.0 - - - - - - - - - 1014.2 - -
29/07:30pm 24.7 - - - - - - - - - 1013.9 1013.9 -
29/07:00pm 25.3 - - - - - - - - - 1013.7 - -
29/06:30pm 25.9 - - - - - - - - - 1013.5 1013.5 -
29/06:00pm 26.9 - - - - - - - - - 1013.2 1013.2 -
29/05:30pm 27.7 - - - - - - - - - 1013.2 1013.2 -
29/05:00pm 28.1 - - - - - - - - - 1013.0 - -
29/04:30pm 28.6 - - - - - - - - - 1012.9 1012.9 -
29/04:00pm 29.4 - - - - - - - - - 1012.9 - -
29/03:30pm 29.4 - - - - - - - - - 1013.2 1013.2 -
29/03:00pm 29.5 - - - - - - - - - 1013.4 1013.4 0.0
29/02:30pm 29.7 - - - - - - - - - 1013.8 1013.8 -
29/02:00pm 30.3 - - - - - - - - - 1014.3 - -
29/01:30pm 29.8 - - - - - - - - - 1014.9 1014.9 -
29/01:00pm 29.8 - - - - - - - - - 1015.4 - -
29/12:30pm 29.3 - - - - - - - - - 1015.8 1015.8 -
29/12:00pm 28.9 - - - - - - - - - 1016.2 1016.2 -
29/11:30am 29.3 - - - - - - - - - 1016.6 1016.6 -
29/11:00am 28.2 - - - - - - - - - 1017.0 - -
29/10:30am 28.7 - - - - - - - - - 1017.3 1017.3 -
29/10:00am 27.9 - - - - - - - - - 1017.3 - -
29/09:30am 27.4 - - - - - - - - - 1017.1 1017.1 -
29/09:00am 26.6 - - - - - - - - - 1016.8 1016.8 0.0
29/08:30am 24.6 - - - - - - - - - 1016.5 1016.5 -
29/08:00am 21.8 - - - - - - - - - 1016.2 - -
29/07:30am 19.3 - - - - - - - - - 1015.8 1015.8 -
29/07:00am 18.7 - - - - - - - - - 1015.5 - -
29/06:30am 18.6 - - - - - - - - - 1015.0 1015.0 -
29/06:00am 18.8 - - - - - - - - - 1014.7 1014.7 -
29/05:30am 19.3 - - - - - - - - - 1014.3 1014.3 -
29/05:00am 20.1 - - - - - - - - - 1014.1 - -
29/04:30am 20.5 - - - - - - - - - 1014.0 1014.0 -
29/04:00am 20.9 - - - - - - - - - 1014.0 - -
29/03:30am 21.4 - - - - - - - - - 1014.1 1014.1 -
29/03:00am 21.9 - - - - - - - - - 1014.2 1014.2 0.0
29/02:30am 22.7 - - - - - - - - - 1014.3 1014.3 -
29/02:00am 23.3 - - - - - - - - - 1014.4 - -
29/01:30am 23.8 - - - - - - - - - 1014.5 1014.5 -
29/01:00am 24.1 - - - - - - - - - 1014.7 - -
29/12:30am 24.1 - - - - - - - - - 1014.8 1014.8 -
29/12:00am 23.8 - - - - - - - - - 1015.1 1015.1 -
 
Date/Time
CST
Temp
°C
App
Temp
°C
Dew
Point
Rel
Hum
%
Delta-T
°C
Wind Press
QNH
hPa
Press
MSL
hPa
Rain
since 9 am
mm
Dir
 
Spd
km/h
Gust
km/h
Spd
kts
Gust
kts
28/11:30pm 20.6 - - - - - - - - - 1015.3 1015.3 -
28/11:00pm 20.8 - - - - - - - - - 1015.3 - -
28/10:30pm 21.1 - - - - - - - - - 1015.2 1015.2 -
28/10:00pm 21.4 - - - - - - - - - 1014.9 - -
28/09:30pm 21.9 - - - - - - - - - 1014.6 1014.6 -
28/09:00pm 22.4 - - - - - - - - - 1014.4 1014.4 0.0
28/08:30pm 23.2 - - - - - - - - - 1014.2 1014.2 -
28/08:00pm 24.3 - - - - - - - - - 1013.8 - -
28/07:30pm 24.8 - - - - - - - - - 1013.4 1013.4 -
28/07:00pm 25.5 - - - - - - - - - 1013.1 - -
28/06:30pm 26.3 - - - - - - - - - 1012.7 1012.7 -
28/06:00pm 27.4 - - - - - - - - - 1012.3 1012.3 -
28/05:30pm 28.5 - - - - - - - - - 1012.1 1012.1 -
28/05:00pm 29.1 - - - - - - - - - 1012.0 - -
28/04:30pm 30.1 - - - - - - - - - 1012.1 1012.1 -
28/04:00pm 30.1 - - - - - - - - - 1012.2 - -
28/03:30pm 30.4 - - - - - - - - - 1012.5 1012.5 -
28/03:00pm 30.3 - - - - - - - - - 1012.7 1012.7 0.0
28/02:30pm 30.4 - - - - - - - - - 1013.1 1013.1 -
28/02:00pm 30.3 - - - - - - - - - 1013.5 - -
28/01:30pm 30.4 - - - - - - - - - 1014.0 1014.0 -
28/01:00pm 30.5 - - - - - - - - - 1014.4 - -
28/12:30pm 30.0 - - - - - - - - - 1014.9 1014.9 -
28/12:00pm 29.4 - - - - - - - - - 1015.4 1015.4 -
28/11:30am 29.9 - - - - - - - - - 1015.8 1015.8 -
28/11:00am 29.3 - - - - - - - - - 1016.3 - -
28/10:30am 29.2 - - - - - - - - - 1016.5 1016.5 -
28/10:00am 28.8 - - - - - - - - - 1016.6 - -
28/09:30am 27.9 - - - - - - - - - 1016.3 1016.3 -
28/09:00am 27.1 - - - - - - - - - 1016.2 1016.2 0.0
28/08:30am 24.9 - - - - - - - - - 1016.0 1016.0 -
28/08:00am 23.3 - - - - - - - - - 1015.7 - -
28/07:30am 21.7 - - - - - - - - - 1015.4 1015.4 -
28/07:00am 20.3 - - - - - - - - - 1015.2 - -
28/06:30am 20.7 - - - - - - - - - 1014.8 1014.8 -
28/06:00am 21.8 - - - - - - - - - 1014.5 1014.5 -
28/05:30am 22.8 - - - - - - - - - 1014.3 1014.3 -
28/05:00am 23.5 - - - - - - - - - 1014.0 - -
28/04:30am 24.1 - - - - - - - - - 1014.1 1014.1 -
28/04:00am 24.6 - - - - - - - - - 1014.0 - -
28/03:30am 24.8 - - - - - - - - - 1014.1 1014.1 -
28/03:00am 24.6 - - - - - - - - - 1014.2 1014.2 0.0
28/02:30am 24.1 - - - - - - - - - 1014.3 1014.3 -
28/02:00am 23.6 - - - - - - - - - 1014.5 - -
28/01:30am 23.1 - - - - - - - - - 1014.7 1014.7 -
28/01:00am 23.4 - - - - - - - - - 1014.9 - -
28/12:30am 23.6 - - - - - - - - - 1015.1 1015.1 -
28/12:00am 23.9 - - - - - - - - - 1015.1 1015.1 -
 
Date/Time
CST
Temp
°C
App
Temp
°C
Dew
Point
Rel
Hum
%
Delta-T
°C
Wind Press
QNH
hPa
Press
MSL
hPa
Rain
since 9 am
mm
Dir
 
Spd
km/h
Gust
km/h
Spd
kts
Gust
kts
27/11:30pm 23.8 - - - - - - - - - 1015.2 1015.2 -
27/11:00pm 23.9 - - - - - - - - - 1015.3 - -
27/10:30pm 23.8 - - - - - - - - - 1015.1 1015.1 -
27/10:00pm 23.4 - - - - - - - - - 1015.1 - -
27/09:30pm 23.5 - - - - - - - - - 1014.8 1014.8 -
27/09:00pm 24.0 - - - - - - - - - 1014.8 1014.8 0.0
27/08:30pm 24.1 - - - - - - - - - 1014.4 1014.4 -
27/08:00pm 24.3 - - - - - - - - - 1014.1 - -
27/07:30pm 24.6 - - - - - - - - - 1013.9 1013.9 -

Other Formats:

Comma delimited format used in spreadsheet applications
http://www.bom.gov.au/fwo/IDD60801/IDD60801.94109.axf

JavaScript Object Notation format (JSON) in row-major order
http://www.bom.gov.au/fwo/IDD60801/IDD60801.94109.json